Time;durP1;ratioP1;P1;durP2;ratioP2;P2;SDS_P1;SDS_P2;PMS_P1;PMS_P2;Temp;Humidity;BMP_temperature;BMP_pressure;BME280_temperature;BME280_humidity;BME280_pressure;Samples;Min_cycle;Max_cycle;Signal;HPM_P1;HPM_P2
2021/09/14 00:00:06;;;;;;;15.07;7.67;;;;;;;11.99;100.00;101463.66;7392424;19;20388;-58
2021/09/14 00:02:36;;;;;;;13.53;9.00;;;;;;;12.21;100.00;101464.69;7396732;19;20419;-55
2021/09/14 00:05:07;;;;;;;12.93;7.60;;;;;;;12.23;100.00;101464.75;7392574;19;20392;-55
2021/09/14 00:07:36;;;;;;;10.23;6.23;;;;;;;12.25;100.00;101464.00;7397917;19;20388;-59
2021/09/14 00:10:10;;;;;;;11.53;5.70;;;;;;;12.19;100.00;101455.97;7394675;19;20459;-57
2021/09/14 00:12:39;;;;;;;10.13;5.83;;;;;;;12.27;100.00;101459.78;7395627;19;20435;-57
2021/09/14 00:15:11;;;;;;;8.17;5.77;;;;;;;12.13;100.00;101459.19;7392403;19;20392;-58
2021/09/14 00:17:41;;;;;;;8.60;5.77;;;;;;;12.13;100.00;101451.41;7397665;19;20457;-58
2021/09/14 00:20:12;;;;;;;10.10;6.00;;;;;;;12.21;100.00;101450.88;7391776;19;20459;-58
2021/09/14 00:22:42;;;;;;;9.90;5.10;;;;;;;12.19;100.00;101455.97;7397116;19;20486;-56
2021/09/14 00:25:14;;;;;;;7.20;5.10;;;;;;;12.11;100.00;101445.25;7393534;19;20395;-57
2021/09/14 00:27:44;;;;;;;11.43;5.67;;;;;;;12.03;100.00;101444.00;7397723;19;20395;-57
2021/09/14 00:30:14;;;;;;;9.47;5.17;;;;;;;12.07;100.00;101447.63;7391633;19;20402;-59
2021/09/14 00:32:44;;;;;;;8.20;4.50;;;;;;;12.13;100.00;101456.59;7395455;19;20411;-58
2021/09/14 00:35:13;;;;;;;10.20;4.73;;;;;;;12.18;100.00;101449.03;7377251;19;20459;-55
2021/09/14 00:37:42;;;;;;;12.73;4.30;;;;;;;12.12;100.00;101444.47;7397182;19;20853;-53
2021/09/14 00:40:15;;;;;;;9.40;5.40;;;;;;;11.98;100.00;101454.13;7365056;19;20390;-56
2021/09/14 00:42:45;;;;;;;12.47;4.97;;;;;;;12.05;100.00;101451.88;7394859;19;20729;-55
2021/09/14 00:45:14;;;;;;;9.50;4.80;;;;;;;12.07;100.00;101448.53;7390661;19;20403;-50
2021/09/14 00:47:44;;;;;;;7.73;4.80;;;;;;;12.00;100.00;101444.72;7394916;19;20392;-55
2021/09/14 00:50:14;;;;;;;10.10;4.57;;;;;;;11.91;100.00;101452.06;7390083;19;20391;-50
2021/09/14 00:52:44;;;;;;;11.00;4.90;;;;;;;11.85;100.00;101447.47;7395601;19;20416;-53
2021/09/14 00:55:16;;;;;;;8.47;5.00;;;;;;;11.91;100.00;101439.16;7393016;19;20459;-53
2021/09/14 00:57:45;;;;;;;16.27;6.78;;;;;;;12.02;100.00;101442.22;7259549;19;2718259;-58
2021/09/14 01:00:16;;;;;;;10.40;5.03;;;;;;;12.11;100.00;101444.41;7392548;19;20206;-54
2021/09/14 01:02:46;;;;;;;9.70;6.27;;;;;;;12.22;100.00;101444.88;7397637;19;20479;-55
2021/09/14 01:05:16;;;;;;;10.30;4.53;;;;;;;12.19;100.00;101445.63;7390870;19;20881;-55
2021/09/14 01:07:46;;;;;;;9.47;4.20;;;;;;;11.96;100.00;101440.25;7398109;19;20379;-58
2021/09/14 01:10:18;;;;;;;6.30;3.90;;;;;;;11.85;100.00;101444.91;7372269;19;20401;-56
2021/09/14 01:12:48;;;;;;;19.00;8.70;;;;;;;11.92;100.00;101446.09;7396193;19;20423;-54
2021/09/14 01:15:18;;;;;;;16.40;8.50;;;;;;;11.83;100.00;101441.34;7391747;19;20490;-57
2021/09/14 01:17:48;;;;;;;9.23;4.30;;;;;;;11.70;100.00;101445.03;7398244;19;20451;-57
2021/09/14 01:20:17;;;;;;;14.33;4.17;;;;;;;11.72;100.00;101443.44;7391815;19;20471;-59
2021/09/14 01:22:50;;;;;;;11.70;4.70;;;;;;;11.81;100.00;101442.09;7397097;19;20702;-52
2021/09/14 01:25:22;;;;;;;7.37;3.70;;;;;;;11.77;100.00;101435.00;7392621;19;20670;-56
2021/09/14 01:27:52;;;;;;;6.13;3.50;;;;;;;11.71;100.00;101443.34;7398381;19;20388;-52
2021/09/14 01:30:22;;;;;;;15.17;8.33;;;;;;;11.64;100.00;101444.75;7389824;19;20486;-56
2021/09/14 01:32:53;;;;;;;6.53;3.80;;;;;;;11.30;100.00;101449.16;7396642;19;20425;-56
2021/09/14 01:35:24;;;;;;;15.67;4.00;;;;;;;11.24;100.00;101455.72;7376982;19;20429;-56
2021/09/14 01:37:57;;;;;;;8.63;3.97;;;;;;;11.18;100.00;101446.84;7397953;19;20849;-57
2021/09/14 01:40:27;;;;;;;7.17;4.37;;;;;;;11.18;100.00;101449.44;7393484;19;20415;-55
2021/09/14 01:42:57;;;;;;;8.80;4.90;;;;;;;11.33;100.00;101457.06;7393993;19;20506;-56
2021/09/14 01:45:26;;;;;;;22.27;9.37;;;;;;;11.33;100.00;101458.75;7389634;19;20411;-57
2021/09/14 01:47:56;;;;;;;16.43;6.40;;;;;;;11.41;100.00;101457.44;7396923;19;20391;-56
2021/09/14 01:50:25;;;;;;;12.20;6.10;;;;;;;11.34;100.00;101460.53;7390949;19;20422;-56
2021/09/14 01:53:00;;;;;;;10.87;6.07;;;;;;;11.25;100.00;101455.81;7396162;19;20487;-56
2021/09/14 01:55:30;;;;;;;21.70;9.13;;;;;;;11.42;100.00;101451.47;7392580;19;20419;-55
2021/09/14 01:58:00;;;;;;;15.83;6.83;;;;;;;11.42;100.00;101443.72;7400602;19;20400;-55
2021/09/14 02:00:31;;;;;;;11.37;4.43;;;;;;;11.37;100.00;101446.91;7397605;19;20411;-59
2021/09/14 02:03:15;;;;;;;10.40;6.43;;;;;;;11.61;100.00;101444.63;7402806;19;20418;-60
2021/09/14 02:06:03;;;;;;;11.43;5.53;;;;;;;11.59;100.00;101438.50;7374453;19;20443;-54
2021/09/14 02:33:48;;;;;;;8.50;4.60;;;;;;;11.74;100.00;101418.53;7372584;19;20399;-50
2021/09/14 02:38:41;;;;;;;6.80;3.80;;;;;;;11.59;100.00;101417.81;7403102;19;20384;-57
2021/09/14 02:41:33;;;;;;;7.70;3.90;;;;;;;11.45;100.00;101415.44;7376330;19;20394;-57
2021/09/14 02:44:20;;;;;;;9.00;4.57;;;;;;;11.54;100.00;101416.72;7400513;19;20437;-58
2021/09/14 03:00:24;;;;;;;9.00;4.83;;;;;;;11.47;100.00;101411.25;7395966;19;20407;-56
2021/09/14 03:02:54;;;;;;;7.07;5.33;;;;;;;11.47;100.00;101411.25;7401087;19;20420;-57
2021/09/14 03:05:23;;;;;;;8.70;5.43;;;;;;;11.45;100.00;101418.00;7396019;19;20491;-57
2021/09/14 03:07:53;;;;;;;11.30;5.67;;;;;;;11.42;100.00;101415.28;7402347;19;20455;-53
2021/09/14 03:10:22;;;;;;;9.23;4.90;;;;;;;11.53;100.00;101417.53;7395819;19;20399;-50
2021/09/14 03:12:54;;;;;;;11.80;4.63;;;;;;;11.57;100.00;101422.00;7400705;19;20536;-50
2021/09/14 03:15:24;;;;;;;9.10;4.20;;;;;;;11.59;100.00;101415.22;7371836;19;20754;-55
2021/09/14 03:17:53;;;;;;;10.63;4.80;;;;;;;11.47;100.00;101416.41;7401116;19;20396;-56
2021/09/14 03:20:23;;;;;;;13.00;5.50;;;;;;;11.57;100.00;101422.00;7398235;19;20921;-56
2021/09/14 03:22:52;;;;;;;10.47;5.37;;;;;;;11.59;100.00;101421.28;7399718;19;20450;-55
2021/09/14 03:25:22;;;;;;;12.67;5.70;;;;;;;11.51;100.00;101419.13;7397380;19;20415;-57
2021/09/14 03:27:54;;;;;;;18.70;6.50;;;;;;;11.48;100.00;101417.28;7401916;19;20396;-58
2021/09/14 03:30:24;;;;;;;14.30;5.70;;;;;;;11.56;100.00;101412.50;7398311;19;20479;-55
2021/09/14 03:32:53;;;;;;;13.50;5.80;;;;;;;11.65;100.00;101418.13;7400105;19;20441;-58
2021/09/14 03:35:22;;;;;;;9.57;5.07;;;;;;;11.46;100.00;101412.06;7398295;19;20483;-54
2021/09/14 03:37:52;;;;;;;17.27;5.60;;;;;;;11.35;100.00;101415.81;7401353;19;20394;-56
2021/09/14 03:40:21;;;;;;;15.23;4.93;;;;;;;11.49;100.00;101411.31;7397832;19;20419;-55
2021/09/14 03:42:51;;;;;;;10.80;5.00;;;;;;;11.54;100.00;101411.53;7399315;19;20426;-58
2021/09/14 03:45:23;;;;;;;10.63;5.00;;;;;;;11.42;100.00;101411.81;7397193;19;20414;-58
2021/09/14 03:47:52;;;;;;;10.53;4.20;;;;;;;11.52;100.00;101407.97;7401322;19;20675;-54
2021/09/14 03:50:22;;;;;;;9.47;4.50;;;;;;;11.61;100.00;101401.56;7394361;19;20484;-55
2021/09/14 03:52:51;;;;;;;10.23;4.80;;;;;;;11.56;100.00;101404.72;7399612;19;20419;-56
2021/09/14 03:55:21;;;;;;;13.07;4.60;;;;;;;11.70;100.00;101395.94;7396763;19;20406;-57
2021/09/14 03:57:50;;;;;;;11.63;5.03;;;;;;;11.64;100.00;101402.53;7400708;19;20403;-57
2021/09/14 04:00:23;;;;;;;15.67;5.57;;;;;;;11.55;100.00;101405.56;7392434;19;20411;-57
2021/09/14 04:02:55;;;;;;;15.80;4.77;;;;;;;11.66;100.00;101408.66;7399323;19;20479;-57
2021/09/14 04:05:31;;;;;;;16.90;4.90;;;;;;;11.54;100.00;101408.94;7371563;19;20459;-57
2021/09/14 04:10:56;;;;;;;35.83;11.17;;;;;;;11.57;100.00;101407.41;7395712;19;20399;-57
2021/09/14 04:13:26;;;;;;;29.70;8.80;;;;;;;11.48;100.00;101407.84;7398958;19;20407;-58
2021/09/14 04:15:58;;;;;;;42.03;10.53;;;;;;;11.63;100.00;101408.50;7395612;19;20429;-59
2021/09/14 04:18:28;;;;;;;48.40;12.90;;;;;;;11.65;100.00;101415.53;7399978;19;20842;-58
2021/09/14 04:20:57;;;;;;;53.90;12.87;;;;;;;11.72;100.00;101406.34;7392147;19;20475;-58
2021/09/14 04:23:27;;;;;;;35.03;9.40;;;;;;;11.83;100.00;101409.44;7398789;19;20475;-59
2021/09/14 04:25:57;;;;;;;38.00;11.23;;;;;;;11.87;100.00;101407.09;7368696;19;20410;-57
2021/09/14 04:28:27;;;;;;;28.80;10.20;;;;;;;11.87;100.00;101406.19;7399214;19;20388;-59
2021/09/14 04:30:59;;;;;;;32.30;10.60;;;;;;;11.83;100.00;101406.84;7392521;19;20884;-53
2021/09/14 04:33:28;;;;;;;27.80;8.30;;;;;;;11.83;100.00;101409.44;7398417;19;20508;-52
2021/09/14 04:35:58;;;;;;;23.77;8.50;;;;;;;11.82;100.00;101408.56;7369847;19;20688;-57
2021/09/14 04:38:28;;;;;;;24.23;6.70;;;;;;;11.85;100.00;101406.13;7398814;19;20653;-54
2021/09/14 04:40:57;;;;;;;23.97;8.20;;;;;;;11.90;100.00;101411.53;7394717;19;20424;-58
2021/09/14 04:43:27;;;;;;;36.73;9.60;;;;;;;11.99;100.00;101413.63;7398074;19;20437;-55
2021/09/14 04:45:59;;;;;;;32.60;9.10;;;;;;;12.13;100.00;101412.63;7391548;19;20438;-51
2021/09/14 04:48:29;;;;;;;43.97;11.13;;;;;;;12.01;100.00;101412.00;7399499;19;20392;-55
2021/09/14 04:50:58;;;;;;;98.17;45.33;;;;;;;11.96;100.00;101406.63;7392189;19;20709;-57
2021/09/14 04:53:28;;;;;;;158.23;69.87;;;;;;;12.02;100.00;101413.78;7401058;19;20430;-57
2021/09/14 04:55:57;;;;;;;52.57;24.43;;;;;;;12.06;100.00;101414.84;7393474;19;20471;-57
2021/09/14 04:58:27;;;;;;;89.17;39.87;;;;;;;12.01;100.00;101409.44;7399123;19;20696;-59
2021/09/14 05:00:59;;;;;;;38.37;17.73;;;;;;;12.00;100.00;101412.84;7391667;19;20427;-59
2021/09/14 05:03:29;;;;;;;42.23;20.00;;;;;;;11.98;100.00;101409.28;7397327;19;20411;-59
2021/09/14 05:05:58;;;;;;;60.40;28.97;;;;;;;11.97;100.00;101408.41;7390609;19;20435;-52
2021/09/14 05:08:29;;;;;;;35.17;15.80;;;;;;;11.92;100.00;101404.72;7398938;19;20393;-56
2021/09/14 05:10:58;;;;;;;28.20;13.40;;;;;;;11.97;100.00;101405.81;7394264;19;20431;-56
2021/09/14 05:13:28;;;;;;;29.27;14.73;;;;;;;12.02;100.00;101404.31;7396171;19;20419;-57
2021/09/14 05:16:00;;;;;;;20.00;9.77;;;;;;;12.05;100.00;101405.31;7391002;19;20862;-53
2021/09/14 05:18:31;;;;;;;14.83;5.50;;;;;;;12.04;100.00;101404.41;7398630;19;20388;-54
2021/09/14 05:21:01;;;;;;;12.70;5.43;;;;;;;12.08;100.00;101397.69;7391583;19;20411;-57
2021/09/14 05:23:33;;;;;;;10.90;4.20;;;;;;;12.05;100.00;101400.13;7396981;19;20673;-54
2021/09/14 05:26:03;;;;;;;14.13;4.37;;;;;;;12.10;100.00;101406.41;7392940;19;20431;-55
2021/09/14 05:28:33;;;;;;;13.17;4.60;;;;;;;12.25;100.00;101399.34;7398369;19;20388;-55
2021/09/14 05:31:07;;;;;;;10.13;4.07;;;;;;;12.26;100.00;101392.47;7391146;19;20726;-56
2021/09/14 05:33:36;;;;;;;10.33;4.50;;;;;;;12.21;100.00;101386.19;7400319;19;20415;-56
2021/09/14 05:36:07;;;;;;;7.90;4.10;;;;;;;12.11;100.00;101390.94;7397901;19;20490;-57
2021/09/14 05:38:37;;;;;;;52.30;30.63;;;;;;;12.32;100.00;101387.56;7405196;19;20676;-57
2021/09/14 05:41:06;;;;;;;19.90;8.47;;;;;;;12.23;100.00;101379.38;7399896;19;20430;-52
2021/09/14 05:43:36;;;;;;;9.47;4.97;;;;;;;12.19;100.00;101378.38;7402846;19;20422;-54
2021/09/14 05:46:08;;;;;;;19.80;10.47;;;;;;;12.40;100.00;101380.13;7396426;19;20435;-60
2021/09/14 05:48:37;;;;;;;24.27;12.30;;;;;;;12.47;100.00;101379.59;7404951;19;20439;-57
2021/09/14 05:51:06;;;;;;;18.27;9.20;;;;;;;12.56;100.00;101379.09;7397737;19;20423;-57
2021/09/14 05:53:36;;;;;;;29.53;12.43;;;;;;;12.67;100.00;101377.00;7402559;19;20423;-59
2021/09/14 05:56:06;;;;;;;9.03;4.83;;;;;;;12.57;100.00;101375.72;7399955;19;20429;-52
2021/09/14 05:58:35;;;;;;;18.90;9.80;;;;;;;12.62;100.00;101373.31;7404535;19;20471;-55
2021/09/14 06:01:09;;;;;;;22.90;12.00;;;;;;;12.65;100.00;101378.63;7397644;19;20896;-51
2021/09/14 06:03:38;;;;;;;33.00;12.00;;;;;;;12.71;100.00;101389.25;7402245;19;20865;-56
2021/09/14 06:06:09;;;;;;;31.43;12.17;;;;;;;12.81;100.00;101388.81;7395830;19;20451;-58
2021/09/14 06:08:39;;;;;;;29.80;11.73;;;;;;;12.90;100.00;101390.03;7403963;19;20856;-57
2021/09/14 06:11:08;;;;;;;22.93;10.23;;;;;;;12.99;100.00;101395.59;7400335;19;20427;-55
2021/09/14 06:13:38;;;;;;;32.53;8.57;;;;;;;13.01;100.00;101393.97;7402198;19;20487;-55
2021/09/14 06:16:10;;;;;;;24.47;10.00;;;;;;;13.32;100.00;101395.22;7396756;19;20502;-58
2021/09/14 06:18:40;;;;;;;36.17;16.07;;;;;;;13.33;100.00;101388.34;7404136;19;20460;-51
2021/09/14 06:21:10;;;;;;;33.00;12.77;;;;;;;13.39;100.00;101379.91;7396986;19;20474;-55
2021/09/14 06:23:42;;;;;;;24.70;8.20;;;;;;;13.41;100.00;101380.84;7401887;19;20478;-52
2021/09/14 06:26:12;;;;;;;36.10;14.27;;;;;;;13.46;100.00;101392.34;7390792;19;20486;-51
2021/09/14 06:28:41;;;;;;;28.33;11.53;;;;;;;13.39;100.00;101393.78;7403423;19;20402;-58
2021/09/14 06:31:14;;;;;;;48.10;21.50;;;;;;;13.56;100.00;101393.59;7396028;19;20419;-52
2021/09/14 06:33:43;;;;;;;41.20;19.83;;;;;;;13.53;100.00;101383.97;7401615;19;20475;-55
2021/09/14 06:36:12;;;;;;;28.73;7.20;;;;;;;13.50;100.00;101383.88;7385861;19;20426;-61
2021/09/14 06:38:42;;;;;;;23.63;6.10;;;;;;;13.47;100.00;101383.72;7403278;19;20387;-58
2021/09/14 06:41:11;;;;;;;14.10;5.60;;;;;;;13.49;100.00;101392.47;7398866;19;20429;-54
2021/09/14 06:43:41;;;;;;;11.00;5.30;;;;;;;13.53;100.00;101391.75;7400614;19;20414;-55
2021/09/14 06:46:13;;;;;;;12.87;4.93;;;;;;;13.60;100.00;101398.06;7383151;19;20890;-58
2021/09/14 06:48:43;;;;;;;18.80;6.80;;;;;;;13.63;100.00;101396.47;7403239;19;20392;-57
2021/09/14 06:51:12;;;;;;;21.73;11.00;;;;;;;13.68;100.00;101398.38;7396151;19;20421;-57
2021/09/14 06:53:41;;;;;;;10.47;4.67;;;;;;;13.69;100.00;101402.75;7401046;19;20491;-57
2021/09/14 06:56:11;;;;;;;14.90;7.83;;;;;;;13.77;100.00;101403.91;7400179;19;20439;-58
2021/09/14 06:58:40;;;;;;;25.07;11.40;;;;;;;13.85;100.00;101402.50;7402883;19;20391;-55
2021/09/14 07:01:19;;;;;;;11.50;6.10;;;;;;;13.91;100.00;101402.72;7380258;19;20421;-59
2021/09/14 07:03:49;;;;;;;32.47;18.93;;;;;;;13.99;100.00;101402.13;7400454;19;20436;-53
2021/09/14 07:06:18;;;;;;;16.97;7.90;;;;;;;14.06;100.00;101396.38;7394870;19;20421;-60
2021/09/14 07:08:47;;;;;;;17.40;7.00;;;;;;;14.11;100.00;101392.22;7402285;19;20468;-58
2021/09/14 07:11:17;;;;;;;14.13;3.60;;;;;;;14.15;100.00;101390.66;7398512;19;20407;-57
2021/09/14 07:13:47;;;;;;;8.57;4.00;;;;;;;14.12;100.00;101401.81;7400109;19;20489;-59
2021/09/14 07:16:19;;;;;;;7.27;3.50;;;;;;;14.13;100.00;101408.75;7395028;19;20432;-56
2021/09/14 07:18:48;;;;;;;9.83;4.20;;;;;;;14.20;100.00;101403.78;7401784;19;20458;-57
2021/09/14 07:21:18;;;;;;;14.80;4.47;;;;;;;14.51;100.00;101394.53;7395322;19;20407;-57
2021/09/14 07:23:47;;;;;;;11.73;3.70;;;;;;;14.56;100.00;101398.19;7400209;19;20689;-55
2021/09/14 07:26:16;;;;;;;7.87;3.27;;;;;;;14.58;100.00;101391.31;7389931;19;20407;-57
2021/09/14 07:28:46;;;;;;;7.43;4.03;;;;;;;14.74;100.00;101384.97;7401797;19;20459;-57
2021/09/14 07:31:19;;;;;;;11.43;3.67;;;;;;;14.83;100.00;101372.28;7394624;19;20427;-60
2021/09/14 07:33:49;;;;;;;5.00;3.10;;;;;;;14.77;100.00;101366.03;7399957;19;20408;-59
2021/09/14 07:36:18;;;;;;;8.30;3.57;;;;;;;14.63;100.00;101366.41;7373736;19;20419;-55
2021/09/14 07:38:48;;;;;;;10.83;3.97;;;;;;;14.70;100.00;101362.28;7400746;19;20436;-60
2021/09/14 07:41:17;;;;;;;7.70;3.90;;;;;;;14.76;100.00;101359.06;7375012;19;20396;-57
2021/09/14 07:43:47;;;;;;;9.97;3.33;;;;;;;14.89;100.00;101366.44;7399146;19;20428;-53
2021/09/14 07:46:19;;;;;;;9.20;3.30;;;;;;;14.98;100.00;101360.66;7393771;19;20435;-55
2021/09/14 07:48:48;;;;;;;7.63;3.73;;;;;;;15.07;100.00;101354.91;7399243;19;20408;-58
2021/09/14 07:51:18;;;;;;;10.03;4.47;;;;;;;15.04;100.00;101354.78;7394302;19;20430;-58
2021/09/14 07:53:49;;;;;;;7.40;4.10;;;;;;;15.04;100.00;101345.28;7399346;19;20420;-57
2021/09/14 07:56:18;;;;;;;6.40;3.53;;;;;;;15.21;100.00;101343.22;7394531;19;20422;-57
2021/09/14 07:58:48;;;;;;;5.10;2.90;;;;;;;15.33;100.00;101352.25;7400493;19;20428;-59
2021/09/14 08:01:20;;;;;;;5.53;3.40;;;;;;;15.36;100.00;101347.13;7394167;19;20405;-58
2021/09/14 08:03:50;;;;;;;5.57;3.10;;;;;;;15.39;100.00;101347.25;7398492;19;20423;-57
2021/09/14 08:06:19;;;;;;;9.30;3.30;;;;;;;15.47;100.00;101345.75;7393292;19;20764;-58
2021/09/14 08:08:49;;;;;;;7.40;4.33;;;;;;;15.61;100.00;101351.38;7398747;19;20402;-58
2021/09/14 08:11:18;;;;;;;8.60;2.90;;;;;;;15.73;100.00;101353.47;7396686;19;20419;-57
2021/09/14 08:13:50;;;;;;;5.13;3.20;;;;;;;15.78;100.00;101358.78;7397781;19;20445;-58
2021/09/14 08:16:22;;;;;;;8.70;3.33;;;;;;;15.99;100.00;101358.59;7371783;19;20487;-58
2021/09/14 08:18:52;;;;;;;5.43;3.20;;;;;;;15.97;100.00;101349.84;7399784;19;20441;-59
2021/09/14 08:21:23;;;;;;;7.27;4.17;;;;;;;15.76;100.00;101356.16;7367095;19;20411;-57
2021/09/14 08:23:52;;;;;;;7.30;3.90;;;;;;;15.79;100.00;101353.66;7398717;19;20731;-53
2021/09/14 08:26:22;;;;;;;9.70;3.80;;;;;;;15.89;100.00;101351.34;7395972;19;20489;-54
2021/09/14 08:28:52;;;;;;;5.37;3.30;;;;;;;16.05;100.00;101350.94;7398248;19;20398;-58
2021/09/14 08:31:24;;;;;;;6.93;3.23;;;;;;;16.12;100.00;101349.41;7371426;19;20399;-53
2021/09/14 08:33:54;;;;;;;9.03;3.30;;;;;;;16.28;100.00;101342.91;7397907;19;20920;-53
2021/09/14 08:36:24;;;;;;;7.80;3.50;;;;;;;16.45;100.00;101345.97;7391069;19;20483;-52
2021/09/14 08:38:54;;;;;;;5.93;3.70;;;;;;;16.45;100.00;101337.25;7399308;19;20392;-52
2021/09/14 08:41:24;;;;;;;5.10;3.60;;;;;;;16.68;100.00;101342.22;7395649;19;20409;-58
2021/09/14 08:43:54;;;;;;;6.53;3.43;;;;;;;16.78;100.00;101344.22;7397844;19;20893;-59
2021/09/14 08:46:26;;;;;;;6.80;3.13;;;;;;;16.82;100.00;101340.81;7392232;19;20834;-60
2021/09/14 08:48:56;;;;;;;11.57;3.23;;;;;;;16.73;100.00;101336.25;7396950;19;20384;-58
2021/09/14 08:51:25;;;;;;;4.63;3.33;;;;;;;16.87;100.00;101344.44;7392516;19;20767;-56
2021/09/14 08:53:55;;;;;;;5.90;3.20;;;;;;;17.08;100.00;101338.00;7397523;19;20491;-59
2021/09/14 08:56:24;;;;;;;7.70;2.73;;;;;;;16.91;100.00;101339.31;7370945;19;20403;-57
2021/09/14 08:59:00;;;;;;;10.57;2.93;;;;;;;17.09;100.00;101344.13;7399084;19;20471;-52
2021/09/14 09:01:33;;;;;;;7.47;3.10;;;;;;;17.24;100.00;101341.88;7391828;19;20487;-54
2021/09/14 09:04:04;;;;;;;5.83;3.50;;;;;;;17.37;100.00;101335.22;7396997;19;20417;-56
2021/09/14 09:06:35;;;;;;;11.47;4.67;;;;;;;17.39;100.00;101338.72;7390012;19;20502;-57
2021/09/14 09:09:15;;;;;;;8.10;3.00;;;;;;;17.44;100.00;101336.25;7403192;19;20396;-58
2021/09/14 09:11:55;;;;;;;13.57;5.17;;;;;;;17.51;100.00;101345.97;7380096;19;20458;-57
2021/09/14 09:14:39;;;;;;;8.43;3.27;;;;;;;17.74;100.00;101331.66;7406185;19;20406;-54
2021/09/14 09:17:13;;;;;;;14.27;6.47;;;;;;;17.84;100.00;101325.78;7398560;19;20394;-58
2021/09/14 09:19:44;;;;;;;10.47;2.90;;;;;;;17.97;100.00;101323.41;7406286;19;20405;-60
2021/09/14 09:22:14;;;;;;;7.57;3.60;;;;;;;18.03;100.00;101320.94;7398669;19;20437;-57
2021/09/14 09:24:48;;;;;;;6.40;3.13;;;;;;;17.92;100.00;101319.00;7405591;19;20467;-57
2021/09/14 09:27:19;;;;;;;8.33;4.33;;;;;;;18.04;100.00;101313.13;7399453;19;20482;-55
2021/09/14 09:29:59;;;;;;;4.60;3.03;;;;;;;18.28;100.00;101306.66;7402963;19;20849;-57
2021/09/14 09:32:46;;;;;;;6.30;3.23;;;;;;;18.29;100.00;101312.75;7403687;19;20403;-55
2021/09/14 09:35:27;;;;;;;6.00;3.40;;;;;;;18.38;100.00;101315.53;7398874;19;20401;-56
2021/09/14 09:37:57;;;;;;;6.77;3.30;;;;;;;18.54;100.00;101314.09;7405475;19;20375;-55
2021/09/14 09:40:27;;;;;;;6.93;3.17;;;;;;;18.59;100.00;101312.44;7401999;19;20405;-57
2021/09/14 09:42:57;;;;;;;6.63;2.93;;;;;;;18.66;100.00;101318.63;7402771;19;20441;-58
2021/09/14 09:45:26;;;;;;;10.80;2.60;;;;;;;18.78;100.00;101322.31;7376987;19;20399;-56
2021/09/14 09:47:58;;;;;;;6.30;2.77;;;;;;;18.84;100.00;101327.63;7403781;19;20455;-59
2021/09/14 09:50:28;;;;;;;11.20;4.80;;;;;;;18.89;100.00;101320.75;7398200;19;20422;-53
2021/09/14 09:52:58;;;;;;;7.87;5.00;;;;;;;19.00;100.00;101329.66;7403257;19;20420;-57
2021/09/14 09:55:28;;;;;;;5.57;3.00;;;;;;;18.72;100.00;101323.97;7356297;19;20859;-59
2021/09/14 09:57:58;;;;;;;7.97;3.63;;;;;;;18.88;100.00;101329.47;7404958;19;20471;-50
2021/09/14 10:00:28;;;;;;;4.83;2.47;;;;;;;19.17;100.00;101318.59;7397662;19;21066;-56
2021/09/14 10:03:02;;;;;;;5.47;2.83;;;;;;;19.01;100.00;101323.56;7401857;19;20412;-56
2021/09/14 10:05:36;;;;;;;5.73;2.70;;;;;;;18.74;100.00;101309.22;7396835;19;20426;-55
2021/09/14 10:08:08;;;;;;;9.37;2.67;;;;;;;18.89;100.00;101310.31;7404191;19;20466;-54
2021/09/14 10:10:40;;;;;;;6.43;2.83;;;;;;;18.95;100.00;101305.16;7395370;19;20482;-53
2021/09/14 10:13:12;;;;;;;4.30;2.70;;;;;;;19.07;100.00;101303.66;7402344;19;20479;-60
2021/09/14 10:15:42;;;;;;;7.33;2.80;;;;;;;19.07;100.00;101298.41;7396853;19;20494;-56
2021/09/14 10:18:14;;;;;;;4.37;2.30;;;;;;;19.19;100.00;101293.38;7403184;19;20380;-59
2021/09/14 10:20:45;;;;;;;4.87;3.03;;;;;;;19.34;100.00;101291.81;7395934;19;20478;-54
2021/09/14 10:23:19;;;;;;;3.53;2.50;;;;;;;19.63;100.00;101291.34;7402258;19;20479;-56
2021/09/14 10:25:50;;;;;;;6.00;2.90;;;;;;;19.70;100.00;101285.31;7399884;19;20416;-56
2021/09/14 10:28:22;;;;;;;5.50;2.13;;;;;;;19.90;100.00;101284.66;7403330;19;20388;-52
2021/09/14 10:30:51;;;;;;;5.50;3.50;;;;;;;19.86;100.00;101285.47;7375862;19;20468;-55
2021/09/14 10:33:25;;;;;;;8.00;3.30;;;;;;;19.87;100.00;101284.63;7400910;19;20440;-55
2021/09/14 10:35:54;;;;;;;5.17;2.47;;;;;;;19.84;100.00;101294.19;7394401;19;20422;-53
2021/09/14 10:38:25;;;;;;;5.23;2.60;;;;;;;20.05;100.00;101289.22;7402815;19;20394;-59
2021/09/14 10:40:56;;;;;;;5.30;3.10;;;;;;;20.00;100.00;101283.91;7399290;19;20419;-57
2021/09/14 10:43:27;;;;;;;5.33;2.87;;;;;;;20.20;100.00;101285.91;7401659;19;20407;-54
2021/09/14 10:45:57;;;;;;;6.63;2.37;;;;;;;20.40;100.00;101287.84;7391668;19;20415;-60
2021/09/14 10:48:31;;;;;;;5.00;2.70;;;;;;;20.51;100.00;101294.91;7402994;19;20384;-60
2021/09/14 10:51:12;;;;;;;8.97;3.00;;;;;;;20.35;100.00;101286.03;7382805;19;20502;-61
2021/09/14 10:53:42;;;;;;;4.93;2.37;;;;;;;20.53;100.00;101294.94;7401067;19;20418;-58
2021/09/14 10:56:12;;;;;;;7.40;2.63;;;;;;;20.66;100.00;101295.03;7399035;19;20478;-58
2021/09/14 10:58:45;;;;;;;11.83;3.00;;;;;;;20.44;100.00;101290.50;7402102;19;20408;-53
2021/09/14 11:01:21;;;;;;;3.80;2.87;;;;;;;20.10;100.00;101291.03;7373958;19;20404;-57
2021/09/14 11:04:07;;;;;;;5.17;2.90;;;;;;;19.97;100.00;101289.13;7400271;19;20426;-55
2021/09/14 11:06:37;;;;;;;4.40;2.37;;;;;;;19.90;100.00;101295.13;7395202;19;20499;-57
2021/09/14 11:09:08;;;;;;;6.40;2.80;;;;;;;19.87;100.00;101297.72;7401587;19;20392;-61
2021/09/14 11:11:37;;;;;;;6.40;2.97;;;;;;;20.20;100.00;101291.13;7395793;19;20425;-59
2021/09/14 11:14:06;;;;;;;4.57;2.60;;;;;;;20.37;100.00;101293.91;7401509;19;20709;-57
2021/09/14 11:16:36;;;;;;;5.73;3.40;;;;;;;20.48;100.00;101283.53;7378456;19;20914;-58
2021/09/14 11:19:10;;;;;;;8.90;3.50;;;;;;;20.77;100.00;101277.66;7401993;19;20431;-56
2021/09/14 11:21:46;;;;;;;8.10;3.63;;;;;;;20.75;100.00;101284.63;7393321;19;20489;-55
2021/09/14 11:24:15;;;;;;;6.67;2.90;;;;;;;20.35;100.00;101290.38;7402136;19;20913;-55
2021/09/14 11:26:44;;;;;;;6.20;3.20;;;;;;;20.75;100.00;101279.38;7375778;19;20396;-54
2021/09/14 11:29:15;;;;;;;4.73;2.90;;;;;;;20.80;100.00;101272.44;7400843;19;20388;-58
2021/09/14 11:31:44;;;;;;;4.93;3.27;;;;;;;20.74;100.00;101277.63;7373475;19;20463;-57
2021/09/14 11:34:20;;;;;;;5.40;3.27;;;;;;;20.84;100.00;101274.25;7400730;19;20714;-55
2021/09/14 11:36:50;;;;;;;8.20;3.47;;;;;;;21.02;100.00;101264.75;7393560;19;20402;-52
2021/09/14 11:39:20;;;;;;;12.00;6.60;;;;;;;21.15;100.00;101263.06;7402029;19;20388;-57
2021/09/14 11:41:49;;;;;;;9.43;3.33;;;;;;;21.34;100.00;101264.06;7394448;19;20473;-59
2021/09/14 11:44:28;;;;;;;8.00;4.27;;;;;;;21.32;100.00;101263.16;7401414;19;20854;-59
2021/09/14 11:46:57;;;;;;;4.63;2.77;;;;;;;21.10;100.00;101268.28;7393809;19;20471;-54
2021/09/14 11:49:31;;;;;;;5.03;3.27;;;;;;;21.01;100.00;101266.50;7400320;19;20406;-56
2021/09/14 11:52:04;;;;;;;5.53;3.07;;;;;;;20.95;100.00;101274.31;7393277;19;20423;-61
2021/09/14 11:54:38;;;;;;;8.23;3.30;;;;;;;21.12;100.00;101269.19;7401092;19;20400;-58
2021/09/14 11:57:07;;;;;;;6.40;3.90;;;;;;;21.11;100.00;101267.44;7393472;19;20467;-57
2021/09/14 11:59:40;;;;;;;6.60;3.50;;;;;;;20.98;100.00;101268.22;7400929;19;20404;-60
2021/09/14 12:02:10;;;;;;;9.30;3.57;;;;;;;20.94;100.00;101264.69;7367326;19;20499;-58
2021/09/14 12:04:42;;;;;;;11.07;5.40;;;;;;;20.90;100.00;101270.78;7401229;19;20469;-56
2021/09/14 12:07:18;;;;;;;6.10;3.50;;;;;;;20.99;100.00;101257.75;7392468;19;20961;-58
2021/09/14 12:09:48;;;;;;;16.13;9.53;;;;;;;21.23;100.00;101260.50;7399958;19;20392;-59
2021/09/14 12:12:17;;;;;;;15.27;7.90;;;;;;;21.27;100.00;101246.53;7393155;19;20469;-58